Hallein, Austria
Current Conditions -  °F | °C
As of 2:50 PM on Friday 28 Nov 2014 (Local Time) from LOWS Reporting Station
Broken Clouds Broken Clouds  
Wind Chill: 39°   Ceiling: 1200
Heat Index: 39°   Visibility: 6mi
Dew Point: 36°   Wind: 3mph
Humidity: 87%   Direction: 360°N
Pressure: 29.85"   Gusts: NA
Location:  47.68°N, 13.11°E
Report Text: LOWS 281250Z 36003KT 250V050 9999 FEW007 BKN012 04/02 Q1011 NOSIG
Loading
Personal Weather Stations






























Interactive Weather Map New forecast layout! Learn more

10-Day Weather Forecast

Advertisements
Track Severe Weather on mobile